Time;durP1;ratioP1;P1;durP2;ratioP2;P2;SDS_P1;SDS_P2;PMS_P1;PMS_P2;Temp;Humidity;BMP_temperature;BMP_pressure;BME280_temperature;BME280_humidity;BME280_pressure;Samples;Min_cycle;Max_cycle;Signal;HPM_P1;HPM_P2
2024/01/29 00:02:11;;;;;;;32.20;16.60;;;;;;;1.49;63.70;102213.98;107816;1257;73579;-67
2024/01/29 00:04:38;;;;;;;33.10;14.70;;;;;;;1.59;63.55;102213.61;107916;1257;61867;-67
2024/01/29 00:07:06;;;;;;;34.70;16.80;;;;;;;1.56;63.38;102212.48;107898;1255;60179;-67
2024/01/29 00:09:34;;;;;;;35.70;15.70;;;;;;;1.57;63.42;102211.32;107873;1256;71821;-65
2024/01/29 00:12:02;;;;;;;30.70;15.70;;;;;;;1.59;63.27;102210.67;107831;1257;69214;-65
2024/01/29 00:14:29;;;;;;;36.50;17.30;;;;;;;1.56;63.23;102214.91;107823;1257;73184;-66
2024/01/29 00:17:00;;;;;;;28.40;14.80;;;;;;;1.54;63.26;102212.94;107835;1257;61764;-66
2024/01/29 00:19:28;;;;;;;31.20;15.20;;;;;;;1.50;63.33;102211.92;107873;1257;59509;-66
2024/01/29 00:21:55;;;;;;;29.40;14.90;;;;;;;1.44;63.39;102211.91;107829;1256;71410;-68
2024/01/29 00:24:23;;;;;;;33.60;16.30;;;;;;;1.47;63.21;102213.04;107847;1257;67725;-66
2024/01/29 00:26:51;;;;;;;26.90;14.20;;;;;;;1.44;62.98;102214.35;107823;1256;71939;-66
2024/01/29 00:29:19;;;;;;;24.40;13.30;;;;;;;1.45;62.64;102218.34;107829;1257;61638;-65
2024/01/29 00:31:46;;;;;;;29.20;14.70;;;;;;;1.48;62.43;102218.28;107933;1256;59997;-66
2024/01/29 00:34:14;;;;;;;27.60;13.60;;;;;;;1.52;62.13;102220.32;107958;1260;71866;-67
2024/01/29 00:36:41;;;;;;;30.80;15.10;;;;;;;1.32;62.43;102223.62;107829;1257;68866;-66
2024/01/29 00:39:09;;;;;;;33.20;15.90;;;;;;;1.26;62.29;102222.38;107796;1257;71377;-66
2024/01/29 00:41:37;;;;;;;32.40;15.50;;;;;;;1.09;62.33;102222.81;107793;1256;59784;-66
2024/01/29 00:44:04;;;;;;;29.30;14.40;;;;;;;0.95;62.31;102221.61;107822;1256;60032;-65
2024/01/29 00:46:32;;;;;;;31.00;15.10;;;;;;;0.93;62.29;102221.88;107930;1256;71836;-65
2024/01/29 00:48:59;;;;;;;27.30;14.60;;;;;;;0.87;62.20;102224.79;107883;1256;70093;-66
2024/01/29 00:51:27;;;;;;;29.20;14.90;;;;;;;0.79;62.16;102219.48;107873;1256;71985;-66
2024/01/29 00:53:54;;;;;;;29.60;14.40;;;;;;;0.74;62.29;102219.31;107902;1257;60503;-66
2024/01/29 00:56:22;;;;;;;32.50;16.40;;;;;;;0.69;62.13;102221.90;107857;1256;59409;-67
2024/01/29 00:58:49;;;;;;;33.20;16.40;;;;;;;0.56;62.10;102223.16;107864;1257;71787;-66
2024/01/29 01:01:17;;;;;;;28.50;15.20;;;;;;;0.50;62.20;102229.83;107778;1257;70667;-63
2024/01/29 01:03:45;;;;;;;30.80;15.40;;;;;;;0.44;62.20;102231.19;108048;1256;71742;-66
2024/01/29 01:06:12;;;;;;;28.50;14.30;;;;;;;0.38;62.02;102231.62;107960;1257;60443;-66
2024/01/29 01:08:40;;;;;;;27.80;13.50;;;;;;;0.32;62.18;102233.80;107898;1257;59443;-66
2024/01/29 01:11:08;;;;;;;31.10;15.10;;;;;;;0.26;62.05;102233.95;107934;1256;71784;-66
2024/01/29 01:13:35;;;;;;;39.00;17.40;;;;;;;0.17;62.31;102232.41;107892;1257;69478;-65
2024/01/29 01:16:03;;;;;;;43.30;19.20;;;;;;;0.12;62.31;102236.33;108004;1257;71677;-66
2024/01/29 01:18:31;;;;;;;43.90;17.80;;;;;;;0.08;62.13;102238.41;107920;1257;60391;-67
2024/01/29 01:20:59;;;;;;;39.40;16.50;;;;;;;0.06;62.04;102238.02;107986;1256;60008;-66
2024/01/29 01:23:27;;;;;;;44.10;17.40;;;;;;;-0.02;62.08;102242.52;107951;1257;75297;-66
2024/01/29 01:25:55;;;;;;;32.50;13.70;;;;;;;0.02;62.06;102243.67;107942;1257;69964;-66
2024/01/29 01:28:23;;;;;;;31.30;15.00;;;;;;;-0.02;62.08;102238.00;107852;1257;74918;-66
2024/01/29 01:30:51;;;;;;;44.10;18.50;;;;;;;-0.04;62.02;102239.84;107769;1256;60637;-66
2024/01/29 01:33:18;;;;;;;34.60;17.10;;;;;;;-0.08;61.99;102247.25;107892;1256;59490;-66
2024/01/29 01:35:46;;;;;;;34.20;17.20;;;;;;;-0.09;61.94;102249.65;108026;1257;71184;-65
2024/01/29 01:38:14;;;;;;;28.70;14.30;;;;;;;-0.11;61.87;102247.17;108088;1257;69310;-66
2024/01/29 01:40:41;;;;;;;31.90;16.40;;;;;;;-0.16;62.11;102249.19;107997;1257;72751;-66
2024/01/29 01:43:21;;;;;;;36.30;16.80;;;;;;;-0.26;62.25;102248.63;107885;1257;64659;-66
2024/01/29 01:46:04;;;;;;;32.90;15.90;;;;;;;-0.30;62.22;102243.10;107998;1257;59690;-65
2024/01/29 01:48:32;;;;;;;32.10;14.70;;;;;;;-0.39;62.43;102237.73;107912;1256;72295;-65
2024/01/29 01:51:01;;;;;;;34.00;16.30;;;;;;;-0.38;62.54;102240.19;107960;1257;69212;-66
2024/01/29 01:53:33;;;;;;;35.00;16.70;;;;;;;-0.40;62.47;102244.23;107910;1257;71774;-66
2024/01/29 01:56:01;;;;;;;36.40;16.60;;;;;;;-0.40;62.51;102238.02;107960;1257;61695;-65
2024/01/29 01:58:28;;;;;;;41.90;17.20;;;;;;;-0.36;62.26;102243.54;108005;1256;60243;-66
2024/01/29 02:00:56;;;;;;;29.30;14.90;;;;;;;-0.36;62.22;102248.40;107945;1257;72037;-66
2024/01/29 02:03:27;;;;;;;36.10;16.70;;;;;;;-0.39;62.33;102252.39;107947;1260;69728;-65
2024/01/29 02:05:55;;;;;;;40.60;16.70;;;;;;;-0.39;62.08;102255.50;107973;1257;71471;-65
2024/01/29 02:08:23;;;;;;;38.90;17.60;;;;;;;-0.41;62.10;102261.79;107831;1260;60755;-66
2024/01/29 02:10:52;;;;;;;35.10;17.30;;;;;;;-0.45;62.00;102266.80;107945;1257;60337;-65
2024/01/29 02:13:19;;;;;;;35.60;15.70;;;;;;;-0.49;62.20;102271.45;107963;1258;73868;-66
2024/01/29 02:15:46;;;;;;;38.90;18.00;;;;;;;-0.58;62.40;102270.39;107916;1257;70302;-66
2024/01/29 02:18:14;;;;;;;73.70;24.10;;;;;;;-0.67;62.81;102273.98;107975;1257;72675;-67
2024/01/29 02:20:42;;;;;;;83.70;25.20;;;;;;;-0.67;62.83;102277.45;107951;1257;60437;-65
2024/01/29 02:23:09;;;;;;;67.80;21.50;;;;;;;-0.68;62.63;102280.36;107922;1257;60267;-65
2024/01/29 02:25:36;;;;;;;56.60;21.00;;;;;;;-0.71;62.90;102282.27;107940;1257;73181;-66
2024/01/29 02:28:04;;;;;;;71.60;24.20;;;;;;;-0.75;62.82;102285.04;107910;1257;70532;-66
2024/01/29 02:30:32;;;;;;;64.30;22.70;;;;;;;-0.78;62.91;102288.52;107933;1257;71244;-65
2024/01/29 02:32:59;;;;;;;51.40;20.00;;;;;;;-0.79;62.71;102292.09;107820;1257;61124;-66
2024/01/29 02:35:27;;;;;;;44.50;19.90;;;;;;;-0.78;62.78;102294.71;107795;1256;61782;-67
2024/01/29 02:37:54;;;;;;;43.50;18.50;;;;;;;-0.73;62.82;102288.88;107885;1257;73989;-66
2024/01/29 02:40:22;;;;;;;43.10;19.40;;;;;;;-0.68;62.66;102287.38;107937;1260;69089;-66
2024/01/29 02:42:50;;;;;;;52.40;20.90;;;;;;;-0.66;62.49;102291.30;107698;1259;71905;-64
2024/01/29 02:45:17;;;;;;;41.60;19.90;;;;;;;-0.66;62.13;102293.50;107848;1256;60648;-66
2024/01/29 02:47:45;;;;;;;40.90;18.80;;;;;;;-0.72;62.23;102292.90;107810;1257;59373;-65
2024/01/29 02:50:13;;;;;;;51.60;20.50;;;;;;;-0.73;62.35;102300.12;107888;1257;73821;-65
2024/01/29 02:52:40;;;;;;;45.50;21.30;;;;;;;-0.84;62.44;102307.05;107937;1257;70193;-65
2024/01/29 02:55:09;;;;;;;64.40;26.00;;;;;;;-0.88;62.77;102301.34;107792;1257;72942;-65
2024/01/29 02:57:37;;;;;;;72.00;25.00;;;;;;;-0.91;62.95;102307.44;107810;1261;60474;-67
2024/01/29 03:00:06;;;;;;;53.20;20.90;;;;;;;-0.94;62.92;102307.45;107846;1256;60336;-65
2024/01/29 03:02:33;;;;;;;63.10;23.90;;;;;;;-1.10;63.32;102309.15;107731;1256;72919;-64
2024/01/29 03:05:01;;;;;;;70.00;24.30;;;;;;;-1.12;62.96;102308.21;107814;1257;69223;-66
2024/01/29 03:07:29;;;;;;;45.90;20.30;;;;;;;-1.17;63.26;102311.95;107753;1257;71410;-67
2024/01/29 03:09:57;;;;;;;41.50;18.80;;;;;;;-1.19;63.14;102309.94;107862;1261;61626;-65
2024/01/29 03:12:25;;;;;;;41.20;17.90;;;;;;;-1.07;63.15;102313.63;107837;1261;60578;-66
2024/01/29 03:14:52;;;;;;;43.80;19.80;;;;;;;-1.11;62.96;102307.61;107737;1257;73865;-67
2024/01/29 03:17:20;;;;;;;38.70;18.40;;;;;;;-1.09;62.45;102311.45;107738;1258;68944;-66
2024/01/29 03:19:48;;;;;;;56.10;24.00;;;;;;;-1.15;62.68;102310.30;107739;1262;72458;-67
2024/01/29 03:22:15;;;;;;;92.90;27.00;;;;;;;-1.29;62.95;102310.54;107797;1255;61872;-66
2024/01/29 03:24:43;;;;;;;84.60;24.60;;;;;;;-1.22;62.94;102313.07;107783;1257;60377;-64
2024/01/29 03:27:10;;;;;;;63.50;22.40;;;;;;;-1.19;62.83;102316.34;107777;1256;73791;-66
2024/01/29 03:29:38;;;;;;;45.40;19.30;;;;;;;-1.24;63.03;102320.92;107775;1257;69217;-65
2024/01/29 03:32:06;;;;;;;46.60;19.80;;;;;;;-1.23;62.88;102325.63;107779;1257;72960;-67
2024/01/29 03:34:34;;;;;;;46.80;19.70;;;;;;;-1.26;62.83;102322.20;107797;1255;61661;-66
2024/01/29 03:37:01;;;;;;;43.00;19.80;;;;;;;-1.27;62.71;102320.79;107709;1262;59253;-65
2024/01/29 03:39:29;;;;;;;37.60;17.80;;;;;;;-1.28;62.58;102322.47;107781;1257;72630;-66
2024/01/29 03:41:56;;;;;;;44.50;19.50;;;;;;;-1.32;62.95;102322.98;107893;1261;70278;-66
2024/01/29 03:44:24;;;;;;;44.30;19.90;;;;;;;-1.33;62.63;102324.64;107875;1257;71147;-66
2024/01/29 03:46:51;;;;;;;42.00;19.10;;;;;;;-1.30;62.85;102322.39;107853;1257;60886;-65
2024/01/29 03:49:19;;;;;;;46.60;20.00;;;;;;;-1.21;62.68;102326.94;107874;1257;60427;-67
2024/01/29 03:51:47;;;;;;;43.60;20.00;;;;;;;-1.24;62.63;102325.60;107850;1257;73835;-66
2024/01/29 03:54:15;;;;;;;47.70;19.80;;;;;;;-1.29;62.85;102327.42;108109;1257;70236;-66
2024/01/29 03:56:42;;;;;;;45.20;21.80;;;;;;;-1.21;62.61;102321.92;108076;1254;72659;-67
2024/01/29 03:59:11;;;;;;;116.20;41.70;;;;;;;-1.19;62.58;102323.39;108110;1254;61731;-66
2024/01/29 04:01:39;;;;;;;90.00;34.20;;;;;;;-1.21;62.40;102330.03;108180;1254;60453;-66
2024/01/29 04:04:10;;;;;;;134.50;48.20;;;;;;;-1.16;62.45;102330.25;108153;1259;74073;-66
2024/01/29 04:06:39;;;;;;;85.10;34.10;;;;;;;-1.26;62.28;102332.38;108202;1254;69211;-65
2024/01/29 04:09:10;;;;;;;88.90;36.40;;;;;;;-1.27;62.55;102329.94;108034;1254;72456;-65
2024/01/29 04:11:37;;;;;;;170.20;60.00;;;;;;;-1.30;62.60;102333.56;108064;1254;60577;-65
2024/01/29 04:14:06;;;;;;;128.40;44.90;;;;;;;-1.33;62.80;102336.87;108150;1254;60187;-67
2024/01/29 04:16:34;;;;;;;90.20;35.00;;;;;;;-1.32;62.47;102335.55;108082;1254;74218;-66
2024/01/29 04:19:01;;;;;;;64.70;25.70;;;;;;;-1.37;62.69;102337.04;108189;1258;70096;-67
2024/01/29 04:21:29;;;;;;;54.90;23.00;;;;;;;-1.40;62.56;102334.64;108084;1254;71486;-66
2024/01/29 04:23:56;;;;;;;48.50;22.40;;;;;;;-1.45;62.78;102333.73;108071;1254;60523;-67
2024/01/29 04:26:24;;;;;;;57.40;25.00;;;;;;;-1.47;62.64;102335.88;108083;1253;60318;-66
2024/01/29 04:28:51;;;;;;;89.00;34.70;;;;;;;-1.52;62.86;102346.88;108132;1254;73804;-66
2024/01/29 04:31:19;;;;;;;60.20;25.40;;;;;;;-1.51;62.88;102349.50;108043;1254;70085;-66
2024/01/29 04:33:46;;;;;;;71.60;27.30;;;;;;;-1.46;62.81;102359.88;108281;1254;71203;-67
2024/01/29 04:36:17;;;;;;;60.50;24.20;;;;;;;-1.44;62.76;102360.64;108221;1253;60474;-67
2024/01/29 04:38:45;;;;;;;51.90;22.40;;;;;;;-1.50;62.68;102366.24;108107;1253;60355;-65
2024/01/29 04:41:19;;;;;;;41.50;18.40;;;;;;;-1.50;63.15;102367.79;108277;1254;73886;-65
2024/01/29 04:43:46;;;;;;;42.50;19.00;;;;;;;-1.52;62.81;102362.88;108243;1253;70171;-66
2024/01/29 04:46:14;;;;;;;42.10;18.40;;;;;;;-1.53;62.82;102361.95;108273;1253;71309;-66
2024/01/29 04:48:42;;;;;;;35.50;16.50;;;;;;;-1.59;62.53;102366.84;108273;1254;61641;-66
2024/01/29 04:51:10;;;;;;;39.50;17.50;;;;;;;-1.62;62.48;102367.58;108256;1254;60279;-66
2024/01/29 04:53:39;;;;;;;39.00;18.30;;;;;;;-1.64;62.56;102370.23;108142;1259;73826;-66
2024/01/29 04:56:06;;;;;;;38.90;17.60;;;;;;;-1.73;62.43;102374.77;108210;1255;72144;-66
2024/01/29 04:58:34;;;;;;;40.50;17.90;;;;;;;-1.77;62.80;102373.67;108200;1254;72791;-66
2024/01/29 05:01:02;;;;;;;38.10;17.60;;;;;;;-1.79;62.88;102371.90;108135;1255;61857;-66
2024/01/29 05:03:30;;;;;;;52.00;22.10;;;;;;;-1.84;62.85;102380.25;108273;1254;60431;-66
2024/01/29 05:05:58;;;;;;;40.00;16.80;;;;;;;-1.84;62.65;102379.39;108247;1254;74041;-66
2024/01/29 05:08:25;;;;;;;33.40;16.30;;;;;;;-1.84;62.99;102372.13;108148;1257;69188;-66
2024/01/29 05:10:53;;;;;;;35.20;16.70;;;;;;;-1.89;63.25;102371.73;108172;1254;72761;-66
2024/01/29 05:13:20;;;;;;;32.80;15.20;;;;;;;-1.87;63.11;102373.70;108224;1253;60685;-66
2024/01/29 05:15:48;;;;;;;35.00;16.80;;;;;;;-1.81;63.14;102373.84;108227;1253;60255;-66
2024/01/29 05:18:16;;;;;;;32.00;15.60;;;;;;;-1.78;62.88;102369.71;108216;1256;73902;-66
2024/01/29 05:20:43;;;;;;;38.30;17.00;;;;;;;-1.77;62.68;102367.00;108421;1256;69186;-66
2024/01/29 05:23:11;;;;;;;32.60;15.00;;;;;;;-1.77;62.93;102370.30;108215;1255;71341;-66
2024/01/29 05:25:39;;;;;;;32.60;15.60;;;;;;;-1.81;62.87;102380.04;108018;1255;61853;-66
2024/01/29 05:28:06;;;;;;;38.40;17.20;;;;;;;-1.80;63.05;102383.70;108214;1255;60429;-68
2024/01/29 05:30:34;;;;;;;33.50;15.60;;;;;;;-1.86;62.92;102385.13;108273;1255;72001;-67
2024/01/29 05:33:02;;;;;;;35.90;16.40;;;;;;;-1.86;63.27;102394.27;108103;1254;70121;-66
2024/01/29 05:35:49;;;;;;;33.90;15.70;;;;;;;-1.84;62.80;102398.69;108061;1259;72934;-67
2024/01/29 05:38:17;;;;;;;36.90;16.40;;;;;;;-1.86;62.89;102390.27;108195;1255;61657;-66
2024/01/29 05:40:44;;;;;;;36.00;16.70;;;;;;;-1.91;62.94;102393.51;108042;1253;60303;-67
2024/01/29 05:43:12;;;;;;;36.40;15.50;;;;;;;-1.92;63.13;102400.03;108173;1253;72621;-67
2024/01/29 05:45:39;;;;;;;29.10;14.40;;;;;;;-1.85;62.65;102398.08;108136;1260;68006;-67
2024/01/29 05:48:08;;;;;;;35.80;16.50;;;;;;;-1.82;62.96;102400.82;108148;1255;72440;-67
2024/01/29 05:50:36;;;;;;;38.70;16.40;;;;;;;-1.78;62.96;102404.46;108112;1255;60403;-67
2024/01/29 05:53:05;;;;;;;32.50;15.50;;;;;;;-1.72;62.82;102409.58;108126;1254;60401;-66
2024/01/29 05:55:33;;;;;;;30.90;14.80;;;;;;;-1.66;62.23;102411.08;108153;1254;72743;-66
2024/01/29 05:58:00;;;;;;;27.00;14.00;;;;;;;-1.61;62.55;102406.89;108049;1254;68780;-65
2024/01/29 06:00:28;;;;;;;29.10;14.40;;;;;;;-1.63;62.71;102409.35;108066;1260;71950;-67
2024/01/29 06:02:56;;;;;;;40.60;16.50;;;;;;;-1.57;62.75;102409.67;108152;1254;60462;-66
2024/01/29 06:05:23;;;;;;;32.40;14.00;;;;;;;-1.48;62.78;102406.98;108146;1255;59565;-67
2024/01/29 06:07:52;;;;;;;39.50;17.90;;;;;;;-1.50;62.61;102408.98;108141;1254;72591;-67
2024/01/29 06:10:19;;;;;;;37.40;17.20;;;;;;;-1.44;62.94;102415.25;108212;1259;68201;-66
2024/01/29 06:12:50;;;;;;;37.20;16.40;;;;;;;-1.45;62.53;102421.58;108155;1254;72433;-66
2024/01/29 06:15:17;;;;;;;37.30;16.80;;;;;;;-1.42;62.72;102426.72;108141;1255;60407;-66
2024/01/29 06:17:46;;;;;;;40.20;16.90;;;;;;;-1.40;62.62;102432.52;108121;1253;60344;-66
2024/01/29 06:20:13;;;;;;;41.10;17.70;;;;;;;-1.37;62.47;102446.83;108102;1254;73830;-66
2024/01/29 06:22:46;;;;;;;37.90;16.20;;;;;;;-1.35;62.53;102455.88;108141;1254;69190;-67
2024/01/29 06:25:16;;;;;;;33.10;16.40;;;;;;;-1.32;62.68;102458.45;108137;1254;71712;-66
2024/01/29 06:27:44;;;;;;;38.80;17.10;;;;;;;-1.28;62.38;102450.70;108111;1253;61593;-66
2024/01/29 06:30:12;;;;;;;35.30;15.40;;;;;;;-1.28;62.42;102448.61;108099;1259;60412;-66
2024/01/29 06:32:40;;;;;;;33.00;15.60;;;;;;;-1.17;62.54;102445.02;108160;1252;73801;-67
2024/01/29 06:35:08;;;;;;;49.50;21.90;;;;;;;-1.01;62.63;102442.88;108340;1256;70497;-66
2024/01/29 06:37:36;;;;;;;59.00;25.10;;;;;;;-0.55;63.57;102439.60;108021;1254;72432;-67
2024/01/29 06:40:05;;;;;;;76.50;28.90;;;;;;;0.15;64.89;102444.05;108267;1254;60365;-67
2024/01/29 06:42:34;;;;;;;74.90;31.00;;;;;;;0.93;65.68;102445.18;108287;1254;60444;-69
2024/01/29 06:45:01;;;;;;;56.10;27.40;;;;;;;1.76;66.33;102447.28;108215;1252;74146;-68
2024/01/29 06:47:29;;;;;;;52.80;24.50;;;;;;;2.59;66.28;102447.04;108183;1254;70531;-66
2024/01/29 06:49:58;;;;;;;71.10;23.50;;;;;;;3.38;65.91;102446.34;108338;1256;71528;-67
2024/01/29 06:52:27;;;;;;;;;;;;;;;4.27;66.08;102446.05;108244;1255;60303;-67
2024/01/29 06:54:55;;;;;;;31.00;17.30;;;;;;;5.00;65.13;102443.48;108276;1254;60194;-67
2024/01/29 06:57:23;;;;;;;30.20;14.70;;;;;;;5.67;63.91;102449.27;108292;1254;72558;-67
2024/01/29 06:59:51;;;;;;;26.20;13.70;;;;;;;6.24;62.29;102444.11;108214;1254;69513;-65
2024/01/29 07:02:18;;;;;;;22.10;13.20;;;;;;;6.96;60.30;102442.48;108196;1256;71431;-67
2024/01/29 07:04:45;;;;;;;21.60;13.00;;;;;;;7.41;59.11;102444.70;108279;1253;60837;-68
2024/01/29 07:07:14;;;;;;;23.00;13.80;;;;;;;7.89;57.84;102446.85;108256;1254;60417;-67
2024/01/29 07:09:42;;;;;;;22.50;13.50;;;;;;;8.42;56.10;102445.48;108320;1256;76046;-67
2024/01/29 07:12:10;;;;;;;25.40;14.90;;;;;;;8.90;53.87;102442.02;108280;1254;72373;-68
2024/01/29 07:14:37;;;;;;;23.10;13.30;;;;;;;9.29;51.75;102438.92;108258;1253;72904;-68
2024/01/29 07:17:08;;;;;;;23.90;13.80;;;;;;;9.63;50.81;102434.86;108155;1254;60473;-68
2024/01/29 07:19:36;;;;;;;20.50;12.70;;;;;;;10.12;49.07;102438.68;108185;1252;60517;-68
2024/01/29 07:22:04;;;;;;;42.90;23.00;;;;;;;10.51;46.42;102441.22;108181;1254;73224;-69
2024/01/29 07:24:33;;;;;;;44.50;23.40;;;;;;;10.81;44.52;102444.36;108201;1254;69654;-68
2024/01/29 07:27:01;;;;;;;31.20;16.90;;;;;;;11.01;43.65;102441.52;108220;1254;72704;-69
2024/01/29 07:29:30;;;;;;;58.90;28.40;;;;;;;11.23;42.10;102439.18;108267;1253;60309;-69
2024/01/29 07:31:58;;;;;;;69.80;29.00;;;;;;;11.32;41.08;102438.63;108248;1254;60404;-68
2024/01/29 07:34:26;;;;;;;33.10;16.90;;;;;;;11.38;40.51;102433.67;108212;1254;73768;-69
2024/01/29 07:36:54;;;;;;;29.60;14.90;;;;;;;11.60;39.99;102432.71;108118;1254;68825;-68
2024/01/29 07:39:22;;;;;;;196.70;92.90;;;;;;;11.78;39.04;102432.29;108243;1254;71437;-68
2024/01/29 07:41:49;;;;;;;64.30;34.30;;;;;;;11.96;38.09;102431.69;108156;1254;60338;-69
2024/01/29 07:44:17;;;;;;;76.50;30.20;;;;;;;12.19;37.90;102434.16;108246;1254;60050;-68
2024/01/29 07:46:44;;;;;;;33.10;17.80;;;;;;;12.32;36.86;102429.30;108282;1254;72873;-67
2024/01/29 07:49:12;;;;;;;23.20;13.20;;;;;;;12.45;36.45;102425.00;108185;1254;70121;-69
2024/01/29 07:51:43;;;;;;;35.30;16.00;;;;;;;12.55;35.30;102428.95;108165;1254;71200;-67
2024/01/29 07:54:10;;;;;;;37.20;16.40;;;;;;;12.53;34.57;102429.15;108251;1254;61559;-68
2024/01/29 07:56:41;;;;;;;49.10;19.60;;;;;;;12.73;34.12;102432.33;108295;1252;60203;-67
2024/01/29 07:59:09;;;;;;;43.40;17.40;;;;;;;12.85;34.56;102438.02;108229;1252;73777;-67
2024/01/29 08:01:37;;;;;;;25.50;12.00;;;;;;;13.27;33.39;102441.66;108190;1254;69013;-68
2024/01/29 08:04:05;;;;;;;16.20;9.90;;;;;;;13.25;32.06;102443.09;108091;1253;74919;-68
2024/01/29 08:06:33;;;;;;;26.40;12.00;;;;;;;13.03;32.20;102447.72;108226;1254;60537;-67
2024/01/29 08:09:04;;;;;;;18.20;10.00;;;;;;;13.15;32.95;102450.24;108220;1253;62823;-67
2024/01/29 08:11:32;;;;;;;42.80;16.30;;;;;;;13.42;32.54;102454.20;108202;1253;74847;-68
2024/01/29 08:14:00;;;;;;;53.00;30.90;;;;;;;13.62;31.37;102451.14;108296;1254;70502;-69
2024/01/29 08:16:27;;;;;;;17.10;10.70;;;;;;;13.70;30.65;102447.15;108280;1254;74074;-68
2024/01/29 08:18:56;;;;;;;17.40;10.30;;;;;;;13.85;31.27;102448.00;108226;1254;61180;-69
2024/01/29 08:21:24;;;;;;;13.20;8.20;;;;;;;13.96;30.69;102452.79;108314;1254;61130;-69
2024/01/29 08:23:52;;;;;;;24.90;10.80;;;;;;;14.15;31.06;102448.12;108196;1254;75661;-68
2024/01/29 08:26:20;;;;;;;26.90;12.50;;;;;;;14.35;30.73;102448.14;108244;1256;69822;-68
2024/01/29 08:28:47;;;;;;;15.60;9.10;;;;;;;14.62;29.52;102453.93;108257;1253;71982;-69
2024/01/29 08:31:15;;;;;;;14.60;9.00;;;;;;;14.69;29.51;102454.70;108216;1253;61189;-68
2024/01/29 08:33:42;;;;;;;15.90;9.60;;;;;;;14.93;29.74;102452.48;108196;1254;60328;-68
2024/01/29 08:36:10;;;;;;;15.60;10.00;;;;;;;15.26;29.69;102449.21;108245;1254;73840;-69
2024/01/29 08:38:38;;;;;;;16.80;10.00;;;;;;;15.83;29.00;102453.38;108216;1253;72387;-68
2024/01/29 08:41:06;;;;;;;15.80;9.80;;;;;;;16.29;28.56;102457.48;108230;1253;71209;-69
2024/01/29 08:43:33;;;;;;;21.50;12.50;;;;;;;16.42;28.37;102456.63;108328;1254;60456;-69
2024/01/29 08:46:01;;;;;;;21.50;11.50;;;;;;;16.43;27.71;102458.04;108369;1254;62247;-69
2024/01/29 08:48:29;;;;;;;20.50;11.20;;;;;;;16.45;27.47;102455.30;108217;1253;72617;-69
2024/01/29 08:50:57;;;;;;;18.80;9.90;;;;;;;16.60;27.57;102455.11;108143;1254;70097;-69
2024/01/29 08:53:27;;;;;;;13.80;9.40;;;;;;;17.20;26.23;102454.83;108183;1254;71625;-69
2024/01/29 08:55:55;;;;;;;14.70;9.00;;;;;;;17.45;26.00;102455.88;108185;1254;61333;-69
2024/01/29 08:58:23;;;;;;;12.10;8.00;;;;;;;17.64;25.88;102458.86;108220;1254;60260;-69
2024/01/29 09:00:54;;;;;;;11.60;6.70;;;;;;;17.86;25.55;102458.96;108211;1254;73708;-68
2024/01/29 09:03:24;;;;;;;9.60;6.20;;;;;;;17.88;25.39;102460.48;108218;1254;72609;-69
2024/01/29 09:05:52;;;;;;;15.20;7.10;;;;;;;18.40;24.97;102462.77;108201;1254;72517;-69
2024/01/29 09:08:21;;;;;;;10.10;6.70;;;;;;;18.82;24.71;102461.75;108160;1253;60389;-67
2024/01/29 09:10:49;;;;;;;9.60;6.80;;;;;;;19.16;24.03;102462.34;108239;1254;59978;-69
2024/01/29 09:13:17;;;;;;;10.50;6.80;;;;;;;18.94;23.92;102464.00;108200;1254;76188;-68
2024/01/29 09:15:44;;;;;;;10.40;7.30;;;;;;;19.19;23.20;102467.92;108257;1252;70458;-69
2024/01/29 09:18:13;;;;;;;8.90;6.50;;;;;;;19.28;23.71;102463.66;108235;1254;74041;-68
2024/01/29 09:20:41;;;;;;;11.40;6.60;;;;;;;19.52;23.14;102467.22;108305;1254;60372;-70
2024/01/29 09:23:09;;;;;;;12.00;6.70;;;;;;;19.72;23.19;102464.54;108395;1252;60367;-69
2024/01/29 09:25:36;;;;;;;10.20;6.60;;;;;;;19.89;22.29;102458.90;108284;1254;73713;-69
2024/01/29 09:28:04;;;;;;;10.80;6.70;;;;;;;19.87;22.48;102455.94;108196;1256;70077;-68
2024/01/29 09:30:32;;;;;;;9.00;6.50;;;;;;;19.85;22.33;102454.42;108250;1254;74816;-69
2024/01/29 09:33:00;;;;;;;8.20;5.40;;;;;;;19.91;22.29;102449.92;108205;1254;60417;-69
2024/01/29 09:35:44;;;;;;;8.30;5.60;;;;;;;19.80;22.41;102444.13;108156;1253;60526;-67
2024/01/29 09:38:13;;;;;;;6.90;5.00;;;;;;;19.83;22.52;102450.20;108171;1254;73802;-71
2024/01/29 09:40:44;;;;;;;8.40;5.80;;;;;;;20.04;22.17;102457.96;108114;1254;72729;-69
2024/01/29 09:43:12;;;;;;;;;;;;;;;20.34;21.56;102459.75;108051;1254;72301;-69
2024/01/29 09:45:40;;;;;;;7.30;4.90;;;;;;;19.77;20.78;102468.27;108179;1254;60306;-70
2024/01/29 09:48:09;;;;;;;8.00;5.20;;;;;;;19.46;21.50;102467.80;108040;1254;60456;-69
2024/01/29 09:50:39;;;;;;;6.60;4.90;;;;;;;19.27;21.76;102470.10;107800;1254;76046;-69
2024/01/29 09:53:06;;;;;;;7.20;5.10;;;;;;;19.18;21.58;102468.86;108129;1254;72229;-68
2024/01/29 09:55:34;;;;;;;7.10;5.10;;;;;;;19.10;21.64;102468.59;108062;1255;72751;-68
2024/01/29 09:58:02;;;;;;;5.70;4.50;;;;;;;18.92;21.59;102471.17;108047;1254;61167;-70
2024/01/29 10:00:29;;;;;;;9.70;5.80;;;;;;;18.90;21.82;102467.16;108165;1253;60303;-70
2024/01/29 10:03:05;;;;;;;10.70;5.30;;;;;;;18.79;21.70;102464.33;108248;1254;74135;-68
2024/01/29 10:05:33;;;;;;;9.00;5.30;;;;;;;18.74;21.46;102464.67;108022;1253;68228;-68
2024/01/29 10:08:01;;;;;;;19.70;8.20;;;;;;;18.66;21.90;102465.46;108132;1254;72717;-69
2024/01/29 10:10:29;;;;;;;11.90;6.50;;;;;;;18.72;22.14;102463.84;108197;1254;60200;-67
2024/01/29 10:15:53;;;;;;;9.10;6.40;;;;;;;18.70;23.29;102456.65;104960;1290;600398;-68
2024/01/29 10:18:21;;;;;;;8.40;5.70;;;;;;;19.76;22.50;102454.95;107451;1260;61125;-68
2024/01/29 10:21:03;;;;;;;7.80;4.80;;;;;;;20.04;21.79;102450.66;107427;1266;59213;-68
2024/01/29 10:23:31;;;;;;;5.70;4.10;;;;;;;19.90;21.24;102454.60;107523;1264;72767;-69
2024/01/29 10:25:59;;;;;;;7.80;4.80;;;;;;;19.39;21.08;102455.45;107435;1268;70124;-69
2024/01/29 10:28:27;;;;;;;7.30;4.20;;;;;;;18.97;21.62;102454.63;107324;1264;135548;-69
2024/01/29 10:30:55;;;;;;;5.90;4.40;;;;;;;18.09;22.96;102463.56;107484;1259;62277;-67
2024/01/29 10:33:25;;;;;;;7.60;4.50;;;;;;;18.11;23.47;102457.66;107544;1260;61150;-69
2024/01/29 10:35:53;;;;;;;6.70;4.80;;;;;;;18.31;23.37;102460.39;107530;1263;71203;-69
2024/01/29 10:38:22;;;;;;;7.50;4.80;;;;;;;18.56;23.25;102458.88;107511;1266;71466;-70
2024/01/29 10:40:50;;;;;;;7.20;4.60;;;;;;;18.84;22.61;102459.87;107465;1264;74755;-67
2024/01/29 10:43:20;;;;;;;6.70;4.50;;;;;;;19.07;22.59;102461.58;107453;1266;60100;-68
2024/01/29 10:45:51;;;;;;;;;;;;;;;19.31;22.33;102472.45;107511;1260;59499;-70
2024/01/29 10:48:22;;;;;;;6.00;4.30;;;;;;;19.50;21.51;102472.49;107551;1266;72032;-69
2024/01/29 10:50:51;;;;;;;6.10;4.40;;;;;;;19.30;21.88;102475.88;107534;1260;72710;-68
2024/01/29 10:53:19;;;;;;;6.40;5.00;;;;;;;19.35;22.19;102474.45;107468;1264;74922;-68
2024/01/29 10:55:50;;;;;;;7.20;4.90;;;;;;;19.54;22.02;102472.66;107514;1261;61011;-69
2024/01/29 10:58:18;;;;;;;7.10;4.70;;;;;;;19.57;21.53;102465.27;107569;1260;60360;-69
2024/01/29 11:00:46;;;;;;;8.20;5.30;;;;;;;19.67;21.59;102462.58;107394;1260;73990;-69
2024/01/29 11:03:14;;;;;;;6.90;5.50;;;;;;;19.73;21.81;102461.48;107504;1260;70885;-69
2024/01/29 11:05:49;;;;;;;9.50;6.20;;;;;;;19.61;22.09;102459.62;107544;1263;71427;-68
2024/01/29 11:08:24;;;;;;;10.70;6.90;;;;;;;19.66;22.03;102458.88;107415;1267;61071;-68
2024/01/29 11:10:52;;;;;;;8.90;6.10;;;;;;;19.79;21.94;102464.09;107425;1261;60119;-69
2024/01/29 11:13:19;;;;;;;9.80;5.70;;;;;;;20.03;21.64;102466.56;107521;1260;71859;-70
2024/01/29 11:15:47;;;;;;;6.40;4.30;;;;;;;20.20;21.68;102462.14;107515;1261;71926;-67